Time;durP1;ratioP1;P1;durP2;ratioP2;P2;SDS_P1;SDS_P2;PMS_P1;PMS_P2;Temp;Humidity;BMP_temperature;BMP_pressure;BME280_temperature;BME280_humidity;BME280_pressure;Samples;Min_cycle;Max_cycle;Signal;HPM_P1;HPM_P2
2023/06/12 00:00:45;;;;;;;;;;;;;;;23.43;39.64258;101669.5;;;;-67
2023/06/12 00:05:47;;;;;;;;;;;;;;;23.38;39.74121;101664.4;;;;-69
2023/06/12 00:10:44;;;;;;;;;;;;;;;23.31;39.66699;101664.5;;;;-70
2023/06/12 00:15:44;;;;;;;;;;;;;;;23.23;39.63672;101660.4;;;;-68
2023/06/12 00:20:44;;;;;;;;;;;;;;;23.18;39.59668;101661.6;;;;-68
2023/06/12 00:25:44;;;;;;;;;;;;;;;23.13;39.58105;101662.3;;;;-69
2023/06/12 00:28:50;;;;;;;0.3;0.1;;;;;;;;;;;;;-69
2023/06/12 00:30:44;;;;;;;;;;;;;;;23.05;39.67773;101665.2;;;;-69
2023/06/12 00:35:44;;;;;;;;;;;;;;;23.02;39.79102;101667.8;;;;-68
2023/06/12 00:40:44;;;;;;;;;;;;;;;22.97;39.625;101668.3;;;;-67
2023/06/12 00:45:44;;;;;;;;;;;;;;;22.91;39.66602;101670.8;;;;-68
2023/06/12 00:50:45;;;;;;;;;;;;;;;22.86;39.66113;101669.6;;;;-67
2023/06/12 00:55:44;;;;;;;;;;;;;;;22.78;39.78125;101669.7;;;;-68
2023/06/12 00:58:55;;;;;;;0.3;0.1;;;;;;;;;;;;;-68
2023/06/12 01:00:49;;;;;;;;;;;;;;;22.76;39.84863;101673;;;;-68
2023/06/12 01:05:46;;;;;;;;;;;;;;;22.7;39.90039;101666.5;;;;-68
2023/06/12 01:10:51;;;;;;;;;;;;;;;22.62;40.01855;101671.1;;;;-68
2023/06/12 01:15:44;;;;;;;;;;;;;;;22.57;40.0498;101671.5;;;;-68
2023/06/12 01:20:44;;;;;;;;;;;;;;;22.51;40.26367;101671;;;;-68
2023/06/12 01:25:55;;;;;;;;;;;;;;;22.45;40.11914;101675.3;;;;-67
2023/06/12 01:29:10;;;;;;;0.2;0.1;;;;;;;;;;;;;-68
2023/06/12 01:30:54;;;;;;;;;;;;;;;22.43;40.01367;101682.7;;;;-68
2023/06/12 01:35:48;;;;;;;;;;;;;;;22.33;40.20117;101678.6;;;;-68
2023/06/12 01:40:45;;;;;;;;;;;;;;;22.26;40.34375;101679.1;;;;-68
2023/06/12 01:45:44;;;;;;;;;;;;;;;22.23;40.35254;101677.5;;;;-67
2023/06/12 01:50:44;;;;;;;;;;;;;;;22.11;40.43457;101676.2;;;;-68
2023/06/12 01:55:45;;;;;;;;;;;;;;;22.08;40.3623;101674.9;;;;-67
2023/06/12 01:59:01;;;;;;;0.2;0;;;;;;;;;;;;;-70
2023/06/12 02:00:44;;;;;;;;;;;;;;;22.01;40.41309;101671.6;;;;-68
2023/06/12 02:05:44;;;;;;;;;;;;;;;21.96;40.54688;101680.3;;;;-67
2023/06/12 02:10:44;;;;;;;;;;;;;;;21.93;40.56738;101682;;;;-68
2023/06/12 02:15:45;;;;;;;;;;;;;;;21.86;40.67578;101682.6;;;;-69
2023/06/12 02:20:44;;;;;;;;;;;;;;;21.81;40.72852;101687.1;;;;-69
2023/06/12 02:25:44;;;;;;;;;;;;;;;21.78;40.75977;101684.4;;;;-69
2023/06/12 02:29:15;;;;;;;0.4;0.1;;;;;;;;;;;;;-68
2023/06/12 02:30:45;;;;;;;;;;;;;;;21.7;40.99316;101680.8;;;;-69
2023/06/12 02:35:44;;;;;;;;;;;;;;;21.65;40.87402;101682.7;;;;-68
2023/06/12 02:40:44;;;;;;;;;;;;;;;21.54;41.07129;101677.8;;;;-68
2023/06/12 02:45:46;;;;;;;;;;;;;;;21.47;41.06543;101683.5;;;;-71
2023/06/12 02:50:44;;;;;;;;;;;;;;;21.42;41.10547;101684;;;;-69
2023/06/12 02:55:44;;;;;;;;;;;;;;;21.36;41.43359;101686.9;;;;-67
2023/06/12 02:59:08;;;;;;;0.3;0.2;;;;;;;;;;;;;-67
2023/06/12 03:00:44;;;;;;;;;;;;;;;21.3;41.3125;101687.6;;;;-68
2023/06/12 03:05:45;;;;;;;;;;;;;;;21.24;41.56055;101684.8;;;;-70
2023/06/12 03:10:44;;;;;;;;;;;;;;;21.18;41.68066;101689.7;;;;-67
2023/06/12 03:15:45;;;;;;;;;;;;;;;21.14;41.62988;101687.5;;;;-67
2023/06/12 03:20:44;;;;;;;;;;;;;;;21.05;41.74805;101685.5;;;;-68
2023/06/12 03:25:47;;;;;;;;;;;;;;;20.99;42.06348;101685.3;;;;-68
2023/06/12 03:29:11;;;;;;;0.2;0.1;;;;;;;;;;;;;-67
2023/06/12 03:30:44;;;;;;;;;;;;;;;20.95;42.23145;101685.2;;;;-68
2023/06/12 03:35:44;;;;;;;;;;;;;;;20.91;42.29688;101687.4;;;;-68
2023/06/12 03:40:44;;;;;;;;;;;;;;;20.86;42.18945;101682.5;;;;-67
2023/06/12 03:45:46;;;;;;;;;;;;;;;20.83;42.5293;101683.3;;;;-66
2023/06/12 03:50:44;;;;;;;;;;;;;;;20.82;42.5166;101688.3;;;;-67
2023/06/12 03:55:46;;;;;;;;;;;;;;;20.79;42.69629;101699;;;;-68
2023/06/12 03:59:15;;;;;;;0.5;0.3;;;;;;;;;;;;;-68
2023/06/12 04:00:45;;;;;;;;;;;;;;;20.77;42.40918;101707.1;;;;-68
2023/06/12 04:05:44;;;;;;;;;;;;;;;20.72;42.75977;101711.6;;;;-68
2023/06/12 04:10:44;;;;;;;;;;;;;;;20.69;43.03125;101712.4;;;;-68
2023/06/12 04:15:45;;;;;;;;;;;;;;;20.71;42.86133;101710.2;;;;-68
2023/06/12 04:20:44;;;;;;;;;;;;;;;20.72;42.72461;101711.9;;;;-68
2023/06/12 04:25:45;;;;;;;;;;;;;;;20.75;43.10547;101713.8;;;;-68
2023/06/12 04:29:19;;;;;;;0.3;0.2;;;;;;;;;;;;;-68
2023/06/12 04:30:45;;;;;;;;;;;;;;;20.73;43.01172;101709.7;;;;-68
2023/06/12 04:35:47;;;;;;;;;;;;;;;20.74;43.13965;101709.9;;;;-67
2023/06/12 04:40:45;;;;;;;;;;;;;;;20.72;43.06836;101708.7;;;;-68
2023/06/12 04:45:44;;;;;;;;;;;;;;;20.75;43.23145;101710.3;;;;-68
2023/06/12 04:50:44;;;;;;;;;;;;;;;20.78;43.05176;101715.9;;;;-68
2023/06/12 04:55:50;;;;;;;;;;;;;;;20.78;43.24512;101716.7;;;;-69
2023/06/12 04:59:21;;;;;;;0.3;0.1;;;;;;;;;;;;;-68
2023/06/12 05:00:47;;;;;;;;;;;;;;;20.8;43.33887;101716.2;;;;-67
2023/06/12 05:05:44;;;;;;;;;;;;;;;20.83;43.12402;101726.9;;;;-68
2023/06/12 05:10:44;;;;;;;;;;;;;;;20.88;43.15234;101733.4;;;;-68
2023/06/12 05:15:44;;;;;;;;;;;;;;;20.92;43.4082;101729.8;;;;-68
2023/06/12 05:20:44;;;;;;;;;;;;;;;21.08;43.18359;101735;;;;-68
2023/06/12 05:25:44;;;;;;;;;;;;;;;21.55;42.79297;101726.8;;;;-69
2023/06/12 05:29:25;;;;;;;0.3;0.1;;;;;;;;;;;;;-68
2023/06/12 05:30:47;;;;;;;;;;;;;;;22.34;41.45508;101724.5;;;;-70
2023/06/12 05:35:44;;;;;;;;;;;;;;;23.12;40.31836;101731;;;;-67
2023/06/12 05:40:44;;;;;;;;;;;;;;;23.73;39.39258;101729.1;;;;-67
2023/06/12 05:45:44;;;;;;;;;;;;;;;24.23;38.93945;101730.3;;;;-69
2023/06/12 05:50:44;;;;;;;;;;;;;;;24.73;38.41602;101730.2;;;;-67
2023/06/12 05:55:44;;;;;;;;;;;;;;;25.19;37.86328;101731.1;;;;-69
2023/06/12 05:59:27;;;;;;;0.3;0.1;;;;;;;;;;;;;-68
2023/06/12 06:00:45;;;;;;;;;;;;;;;25.74;37.19238;101733.6;;;;-69
2023/06/12 06:05:44;;;;;;;;;;;;;;;26.24;36.61719;101739.1;;;;-67
2023/06/12 06:10:44;;;;;;;;;;;;;;;26.58;36.34277;101742.1;;;;-69
2023/06/12 06:15:44;;;;;;;;;;;;;;;26.88;36.26172;101739.8;;;;-68
2023/06/12 06:20:44;;;;;;;;;;;;;;;27.13;36.07227;101743.2;;;;-69
2023/06/12 06:25:44;;;;;;;;;;;;;;;27.44;35.90039;101742.4;;;;-67
2023/06/12 06:29:32;;;;;;;0.2;0.1;;;;;;;;;;;;;-66
2023/06/12 06:30:44;;;;;;;;;;;;;;;27.73;35.56152;101742.5;;;;-67
2023/06/12 06:35:44;;;;;;;;;;;;;;;28.07;35.30859;101748.2;;;;-67
2023/06/12 06:40:44;;;;;;;;;;;;;;;28.32;34.94238;101742.9;;;;-68
2023/06/12 06:45:44;;;;;;;;;;;;;;;28.59;34.55469;101744.8;;;;-68
2023/06/12 06:50:45;;;;;;;;;;;;;;;28.86;34.36523;101748.3;;;;-67
2023/06/12 06:55:44;;;;;;;;;;;;;;;29.05;34.15625;101750.3;;;;-68
2023/06/12 06:59:36;;;;;;;0.4;0.1;;;;;;;;;;;;;-69
2023/06/12 07:00:44;;;;;;;;;;;;;;;29.32;33.94336;101751.8;;;;-70
2023/06/12 07:05:44;;;;;;;;;;;;;;;29.54;33.59668;101751.1;;;;-68
2023/06/12 07:10:44;;;;;;;;;;;;;;;29.81;33.38184;101750.6;;;;-70
2023/06/12 07:15:44;;;;;;;;;;;;;;;29.97;33.25293;101751.9;;;;-68
2023/06/12 07:20:44;;;;;;;;;;;;;;;30.09;33.05176;101753.7;;;;-69
2023/06/12 07:25:44;;;;;;;;;;;;;;;30.45;32.74805;101748.7;;;;-68
2023/06/12 07:29:41;;;;;;;0.4;0.1;;;;;;;;;;;;;-68
2023/06/12 07:30:46;;;;;;;;;;;;;;;30.65;32.52832;101751;;;;-70
2023/06/12 07:35:44;;;;;;;;;;;;;;;30.85;32.40137;101749;;;;-68
2023/06/12 07:40:44;;;;;;;;;;;;;;;31;32.27051;101747.9;;;;-68
2023/06/12 07:45:44;;;;;;;;;;;;;;;31.09;32.25391;101748.5;;;;-69
2023/06/12 07:50:44;;;;;;;;;;;;;;;31.24;32.27637;101747.5;;;;-69
2023/06/12 07:55:44;;;;;;;;;;;;;;;31.34;32.33008;101750.2;;;;-68
2023/06/12 07:59:47;;;;;;;0.5;0.2;;;;;;;;;;;;;-68
2023/06/12 08:00:44;;;;;;;;;;;;;;;31.43;32.4668;101751.4;;;;-68
2023/06/12 08:05:44;;;;;;;;;;;;;;;31.57;32.26367;101749.2;;;;-67
2023/06/12 08:10:44;;;;;;;;;;;;;;;31.65;32.28125;101752.1;;;;-66
2023/06/12 08:15:44;;;;;;;;;;;;;;;31.75;32.27734;101746.2;;;;-67
2023/06/12 08:20:44;;;;;;;;;;;;;;;31.87;32.22656;101746.1;;;;-67
2023/06/12 08:25:44;;;;;;;;;;;;;;;31.92;32.14844;101746.3;;;;-65
2023/06/12 08:29:52;;;;;;;0.3;0.1;;;;;;;;;;;;;-68
2023/06/12 08:30:44;;;;;;;;;;;;;;;32.19;32.10742;101743.5;;;;-66
2023/06/12 08:35:44;;;;;;;;;;;;;;;32.36;31.88379;101743.6;;;;-67
2023/06/12 08:40:44;;;;;;;;;;;;;;;32.5;31.87109;101744.9;;;;-66
2023/06/12 08:45:49;;;;;;;;;;;;;;;32.73;31.7207;101746.3;;;;-67
2023/06/12 08:50:47;;;;;;;;;;;;;;;32.87;31.77832;101741;;;;-67
2023/06/12 08:55:44;;;;;;;;;;;;;;;33.1;31.4873;101745.1;;;;-69
2023/06/12 08:59:57;;;;;;;0.2;0.1;;;;;;;;;;;;;-68
2023/06/12 09:00:44;;;;;;;;;;;;;;;33.38;31.10449;101740.7;;;;-66
2023/06/12 09:05:45;;;;;;;;;;;;;;;33.57;31.08203;101739.2;;;;-67
2023/06/12 09:10:44;;;;;;;;;;;;;;;33.78;30.82422;101737.4;;;;-66
2023/06/12 09:15:52;;;;;;;;;;;;;;;33.91;30.9043;101739.5;;;;-66
2023/06/12 09:20:44;;;;;;;;;;;;;;;34.05;30.80664;101741.7;;;;-68
2023/06/12 09:25:44;;;;;;;;;;;;;;;34.12;30.50391;101739.1;;;;-67
2023/06/12 09:30:05;;;;;;;0.2;0.1;;;;;;;;;;;;;-66
2023/06/12 09:30:47;;;;;;;;;;;;;;;34.25;30.19336;101740.2;;;;-66
2023/06/12 09:35:56;;;;;;;;;;;;;;;34.39;30.04785;101740;;;;-67
2023/06/12 09:40:44;;;;;;;;;;;;;;;34.55;29.44141;101743.7;;;;-68
2023/06/12 09:45:51;;;;;;;;;;;;;;;34.78;29.20703;101743.8;;;;-66
2023/06/12 09:50:44;;;;;;;;;;;;;;;34.95;28.95703;101741.1;;;;-67
2023/06/12 09:55:44;;;;;;;;;;;;;;;35.28;28.5498;101745.9;;;;-66
2023/06/12 10:00:11;;;;;;;0.2;0;;;;;;;;;;;;;-66
2023/06/12 10:00:44;;;;;;;;;;;;;;;35.5;27.8623;101742.4;;;;-65
2023/06/12 10:05:45;;;;;;;;;;;;;;;35.73;27.94824;101747.3;;;;-67
2023/06/12 10:10:44;;;;;;;;;;;;;;;35.93;27.53223;101742.9;;;;-66
2023/06/12 10:15:44;;;;;;;;;;;;;;;36.14;27.08105;101745.1;;;;-66
2023/06/12 10:20:45;;;;;;;;;;;;;;;36.31;26.54297;101747.5;;;;-66
2023/06/12 10:25:44;;;;;;;;;;;;;;;36.48;26.4209;101741.4;;;;-66
2023/06/12 10:30:22;;;;;;;0.4;0;;;;;;;;;;;;;-66
2023/06/12 10:30:54;;;;;;;;;;;;;;;36.62;25.90527;101736.4;;;;-67
2023/06/12 10:35:46;;;;;;;;;;;;;;;36.73;25.69629;101739.1;;;;-65
2023/06/12 10:40:44;;;;;;;;;;;;;;;36.81;25.47461;101730.7;;;;-66
2023/06/12 10:45:44;;;;;;;;;;;;;;;36.89;26.11133;101724.3;;;;-67
2023/06/12 10:50:45;;;;;;;;;;;;;;;37.05;25.59473;101718.9;;;;-65
2023/06/12 10:55:44;;;;;;;;;;;;;;;37.13;24.82324;101715.9;;;;-66
2023/06/12 11:00:27;;;;;;;0.2;0.1;;;;;;;;;;;;;-65
2023/06/12 11:00:46;;;;;;;;;;;;;;;37.16;24.33594;101718.9;;;;-67
2023/06/12 11:05:51;;;;;;;;;;;;;;;37.25;25.12891;101711;;;;-66
2023/06/12 11:10:44;;;;;;;;;;;;;;;37.31;25.08398;101707.2;;;;-66
2023/06/12 11:15:51;;;;;;;;;;;;;;;37.55;24.64258;101705.3;;;;-65
2023/06/12 11:20:44;;;;;;;;;;;;;;;37.76;23.90137;101699;;;;-65
2023/06/12 11:25:49;;;;;;;;;;;;;;;37.79;23.79492;101699.9;;;;-66
2023/06/12 11:30:33;;;;;;;0.2;0;;;;;;;;;;;;;-66
2023/06/12 11:30:50;;;;;;;;;;;;;;;37.83;23.85742;101700.6;;;;-67
2023/06/12 11:35:47;;;;;;;;;;;;;;;37.95;24.03027;101704.7;;;;-65
2023/06/12 11:40:44;;;;;;;;;;;;;;;38.14;23.46582;101708.2;;;;-67
2023/06/12 11:45:45;;;;;;;;;;;;;;;38.29;23.28223;101702.5;;;;-68
2023/06/12 11:50:44;;;;;;;;;;;;;;;38.48;23.12402;101695.5;;;;-65
2023/06/12 11:55:46;;;;;;;;;;;;;;;38.56;23.52344;101705.5;;;;-68
2023/06/12 12:00:39;;;;;;;0.2;0;;;;;;;;;;;;;-66
2023/06/12 12:00:49;;;;;;;;;;;;;;;38.72;23.29199;101701.2;;;;-66
2023/06/12 12:05:44;;;;;;;;;;;;;;;38.72;23.3877;101690.5;;;;-67
2023/06/12 12:10:46;;;;;;;;;;;;;;;38.72;23.60352;101684.9;;;;-65
2023/06/12 12:15:45;;;;;;;;;;;;;;;38.74;22.58594;101680.9;;;;-67
2023/06/12 12:20:44;;;;;;;;;;;;;;;38.89;23.63574;101682.8;;;;-66
2023/06/12 12:25:44;;;;;;;;;;;;;;;38.94;23.6748;101682.2;;;;-66
2023/06/12 12:30:44;;;;;;;;;;;;;;;38.95;22.14063;101682.9;;;;-66
2023/06/12 12:30:53;;;;;;;0.1;0;;;;;;;;;;;;;-66
2023/06/12 12:35:44;;;;;;;;;;;;;;;38.97;23.06445;101684.8;;;;-66
2023/06/12 12:40:44;;;;;;;;;;;;;;;39.05;22.9248;101678.6;;;;-66
2023/06/12 12:45:44;;;;;;;;;;;;;;;39.06;22.94922;101679.4;;;;-66
2023/06/12 12:50:44;;;;;;;;;;;;;;;39.06;23.02148;101677.1;;;;-66
2023/06/12 12:55:44;;;;;;;;;;;;;;;39.06;22.75781;101674.3;;;;-66
2023/06/12 13:00:44;;;;;;;;;;;;;;;38.96;22.66797;101668;;;;-65
2023/06/12 13:00:59;;;;;;;0.6;0.1;;;;;;;;;;;;;-65
2023/06/12 13:05:45;;;;;;;;;;;;;;;39.12;22.53223;101662.6;;;;-66
2023/06/12 13:10:44;;;;;;;;;;;;;;;39.22;22.42871;101655.3;;;;-66
2023/06/12 13:15:45;;;;;;;;;;;;;;;39.32;22.51758;101650.2;;;;-67
2023/06/12 13:20:44;;;;;;;;;;;;;;;39.46;21.88867;101654.7;;;;-68
2023/06/12 13:25:44;;;;;;;;;;;;;;;39.52;21.51855;101654.2;;;;-66
2023/06/12 13:30:44;;;;;;;;;;;;;;;39.49;22.63477;101644.7;;;;-67
2023/06/12 13:31:00;;;;;;;0.2;0;;;;;;;;;;;;;-65
2023/06/12 13:35:46;;;;;;;;;;;;;;;39.53;22.46875;101640.7;;;;-67
2023/06/12 13:40:49;;;;;;;;;;;;;;;39.54;22.04883;101634.4;;;;-66
2023/06/12 13:45:44;;;;;;;;;;;;;;;39.66;21.81348;101633.5;;;;-67
2023/06/12 13:50:44;;;;;;;;;;;;;;;39.64;22.22168;101626;;;;-67
2023/06/12 13:55:44;;;;;;;;;;;;;;;39.5;21.77051;101624.1;;;;-68
2023/06/12 14:00:44;;;;;;;;;;;;;;;39.58;21.83398;101622.2;;;;-68
2023/06/12 14:01:07;;;;;;;0.2;0.1;;;;;;;;;;;;;-68
2023/06/12 14:05:44;;;;;;;;;;;;;;;39.53;20.97949;101618.2;;;;-67
2023/06/12 14:10:45;;;;;;;;;;;;;;;39.59;21.90625;101610.9;;;;-68
2023/06/12 14:15:44;;;;;;;;;;;;;;;39.72;21.13184;101611.2;;;;-68
2023/06/12 14:20:44;;;;;;;;;;;;;;;39.73;21.30078;101612.9;;;;-68
2023/06/12 14:25:44;;;;;;;;;;;;;;;39.76;21.60156;101612.4;;;;-67
2023/06/12 14:30:44;;;;;;;;;;;;;;;39.73;21.38477;101604;;;;-68
2023/06/12 14:31:15;;;;;;;0.1;0;;;;;;;;;;;;;-66
2023/06/12 14:35:44;;;;;;;;;;;;;;;39.88;22.37695;101593.3;;;;-67
2023/06/12 14:40:44;;;;;;;;;;;;;;;39.97;21.76855;101595.4;;;;-68
2023/06/12 14:45:44;;;;;;;;;;;;;;;39.88;21.66797;101587.4;;;;-67
2023/06/12 14:50:44;;;;;;;;;;;;;;;39.74;21.22852;101588.8;;;;-68
2023/06/12 14:55:44;;;;;;;;;;;;;;;39.75;20.92871;101580.9;;;;-68
2023/06/12 15:00:44;;;;;;;;;;;;;;;39.65;21.54883;101583.4;;;;-68
2023/06/12 15:01:23;;;;;;;0.2;0.1;;;;;;;;;;;;;-66
2023/06/12 15:05:44;;;;;;;;;;;;;;;39.24;20.71387;101578;;;;-67
2023/06/12 15:10:44;;;;;;;;;;;;;;;38.74;21.20703;101578.6;;;;-68
2023/06/12 15:15:44;;;;;;;;;;;;;;;38.44;21.92383;101574.9;;;;-66
2023/06/12 15:20:44;;;;;;;;;;;;;;;38.41;22.10254;101572.9;;;;-66
2023/06/12 15:25:44;;;;;;;;;;;;;;;38.26;22.33496;101570.4;;;;-66
2023/06/12 15:30:44;;;;;;;;;;;;;;;38.13;22.19727;101558.7;;;;-66
2023/06/12 15:31:30;;;;;;;0.2;0;;;;;;;;;;;;;-65
2023/06/12 15:35:44;;;;;;;;;;;;;;;38.18;21.34863;101558.5;;;;-66
2023/06/12 15:40:44;;;;;;;;;;;;;;;38.21;21.87695;101561.3;;;;-67
2023/06/12 15:45:45;;;;;;;;;;;;;;;37.99;22.16602;101562.6;;;;-66
2023/06/12 15:50:45;;;;;;;;;;;;;;;37.75;22.98047;101558.8;;;;-65
2023/06/12 15:55:51;;;;;;;;;;;;;;;37.71;23.46777;101554.8;;;;-66
2023/06/12 16:00:44;;;;;;;;;;;;;;;37.65;23.19043;101550.7;;;;-66
2023/06/12 16:01:38;;;;;;;0.2;0;;;;;;;;;;;;;-65
2023/06/12 16:05:44;;;;;;;;;;;;;;;37.58;23.62891;101541;;;;-66
2023/06/12 16:10:44;;;;;;;;;;;;;;;37.5;23.41016;101540.2;;;;-66
2023/06/12 16:15:46;;;;;;;;;;;;;;;37.3;23.86523;101535.1;;;;-65
2023/06/12 16:20:44;;;;;;;;;;;;;;;37.11;23.95117;101534.4;;;;-65
2023/06/12 16:25:44;;;;;;;;;;;;;;;36.96;24.56348;101529.9;;;;-64
2023/06/12 16:30:44;;;;;;;;;;;;;;;36.81;24.85449;101526.8;;;;-66
2023/06/12 16:31:46;;;;;;;0.2;0.1;;;;;;;;;;;;;-65
2023/06/12 16:35:44;;;;;;;;;;;;;;;36.67;25.25195;101527.1;;;;-66
2023/06/12 16:40:44;;;;;;;;;;;;;;;36.43;25.04785;101522.3;;;;-65
2023/06/12 16:45:44;;;;;;;;;;;;;;;36.15;25.2832;101514.8;;;;-65
2023/06/12 16:50:44;;;;;;;;;;;;;;;35.93;25.94922;101522.9;;;;-66
2023/06/12 16:55:44;;;;;;;;;;;;;;;35.62;26.0752;101514.1;;;;-66
2023/06/12 17:00:44;;;;;;;;;;;;;;;35.35;26.03613;101508.8;;;;-65
2023/06/12 17:01:52;;;;;;;0.3;0.1;;;;;;;;;;;;;-66
2023/06/12 17:05:44;;;;;;;;;;;;;;;35.12;26.6875;101504.8;;;;-66
2023/06/12 17:10:45;;;;;;;;;;;;;;;34.98;27.01172;101508.5;;;;-65
2023/06/12 17:15:44;;;;;;;;;;;;;;;34.76;27.27246;101503.4;;;;-66
2023/06/12 17:20:47;;;;;;;;;;;;;;;34.53;27.46094;101498.8;;;;-67
2023/06/12 17:25:44;;;;;;;;;;;;;;;34.3;27.77832;101497.9;;;;-68
2023/06/12 17:30:44;;;;;;;;;;;;;;;34.15;27.92383;101497.8;;;;-71
2023/06/12 17:31:59;;;;;;;0.4;0.2;;;;;;;;;;;;;-71
2023/06/12 17:35:44;;;;;;;;;;;;;;;33.82;28.21191;101499.5;;;;-72
2023/06/12 17:40:48;;;;;;;;;;;;;;;33.56;28.5625;101494.6;;;;-72
2023/06/12 17:45:44;;;;;;;;;;;;;;;33.43;28.87305;101482.2;;;;-70
2023/06/12 17:50:46;;;;;;;;;;;;;;;33.31;29.07813;101480.5;;;;-72
2023/06/12 17:55:44;;;;;;;;;;;;;;;33.07;29.40625;101482;;;;-72
2023/06/12 18:00:45;;;;;;;;;;;;;;;32.9;29.80859;101472.6;;;;-72
2023/06/12 18:02:19;;;;;;;0.3;0.1;;;;;;;;;;;;;-72
2023/06/12 18:05:44;;;;;;;;;;;;;;;32.71;29.90234;101470.8;;;;-72
2023/06/12 18:10:44;;;;;;;;;;;;;;;32.54;30.12695;101471;;;;-72
2023/06/12 18:15:45;;;;;;;;;;;;;;;32.39;30.4834;101469.2;;;;-72
2023/06/12 18:20:47;;;;;;;;;;;;;;;32.22;30.4248;101467.5;;;;-73
2023/06/12 18:25:46;;;;;;;;;;;;;;;32.02;30.71777;101471.5;;;;-72
2023/06/12 18:30:45;;;;;;;;;;;;;;;31.83;30.9873;101473.9;;;;-71
2023/06/12 18:32:12;;;;;;;0.2;0;;;;;;;;;;;;;-71
2023/06/12 18:35:49;;;;;;;;;;;;;;;31.76;31.08887;101470.4;;;;-73
2023/06/12 18:40:49;;;;;;;;;;;;;;;31.64;30.58594;101471.2;;;;-72
2023/06/12 18:45:54;;;;;;;;;;;;;;;31.5;30.91797;101467.6;;;;-72
2023/06/12 18:50:45;;;;;;;;;;;;;;;31.31;31.16406;101473.8;;;;-73
2023/06/12 18:55:44;;;;;;;;;;;;;;;31.09;31.72461;101475.7;;;;-72
2023/06/12 19:00:45;;;;;;;;;;;;;;;30.87;32.0498;101475.5;;;;-72
2023/06/12 19:02:18;;;;;;;0.3;0.1;;;;;;;;;;;;;-73
2023/06/12 19:05:44;;;;;;;;;;;;;;;30.59;32.22949;101486;;;;-72
2023/06/12 19:10:44;;;;;;;;;;;;;;;30.38;31.60449;101486;;;;-74
2023/06/12 19:15:45;;;;;;;;;;;;;;;30.17;32.56348;101489.2;;;;-72
2023/06/12 19:20:46;;;;;;;;;;;;;;;29.97;32.87793;101496.7;;;;-72
2023/06/12 19:25:52;;;;;;;;;;;;;;;29.76;33.16699;101494.3;;;;-74
2023/06/12 19:30:45;;;;;;;;;;;;;;;29.54;33.52637;101495.4;;;;-72
2023/06/12 19:32:23;;;;;;;0.2;0.1;;;;;;;;;;;;;-72
2023/06/12 19:35:44;;;;;;;;;;;;;;;29.35;33.55957;101499.4;;;;-73
2023/06/12 19:40:44;;;;;;;;;;;;;;;29.17;34.27051;101497.8;;;;-68
2023/06/12 19:45:44;;;;;;;;;;;;;;;28.97;33.97461;101504;;;;-69
2023/06/12 19:50:46;;;;;;;;;;;;;;;28.77;34.66113;101508.5;;;;-67
2023/06/12 19:55:44;;;;;;;;;;;;;;;28.57;34.99707;101511.8;;;;-67
2023/06/12 20:00:45;;;;;;;;;;;;;;;28.38;35.2627;101515;;;;-68
2023/06/12 20:02:29;;;;;;;0.3;0.1;;;;;;;;;;;;;-68
2023/06/12 20:05:44;;;;;;;;;;;;;;;28.2;35.13184;101517.8;;;;-68
2023/06/12 20:10:44;;;;;;;;;;;;;;;28.03;35.49121;101523.2;;;;-68
2023/06/12 20:15:44;;;;;;;;;;;;;;;27.83;36.01172;101525.1;;;;-68
2023/06/12 20:20:49;;;;;;;;;;;;;;;27.65;36.19531;101532;;;;-67
2023/06/12 20:25:44;;;;;;;;;;;;;;;27.46;36.60059;101533.7;;;;-67
2023/06/12 20:30:44;;;;;;;;;;;;;;;27.26;36.63086;101529.6;;;;-68
2023/06/12 20:32:34;;;;;;;0.6;0.2;;;;;;;;;;;;;-69
2023/06/12 20:35:44;;;;;;;;;;;;;;;27.08;37.2207;101537.1;;;;-69
2023/06/12 20:40:44;;;;;;;;;;;;;;;26.91;37.01953;101537.8;;;;-67
2023/06/12 20:45:44;;;;;;;;;;;;;;;26.72;37.0166;101543.6;;;;-69
2023/06/12 20:50:44;;;;;;;;;;;;;;;26.54;36.78125;101549.2;;;;-68
2023/06/12 20:55:44;;;;;;;;;;;;;;;26.43;36.7373;101554.4;;;;-69
2023/06/12 21:00:44;;;;;;;;;;;;;;;26.26;36.67676;101558.4;;;;-70
2023/06/12 21:02:38;;;;;;;0.3;0.2;;;;;;;;;;;;;-69
2023/06/12 21:05:46;;;;;;;;;;;;;;;26.14;36.53906;101563;;;;-68
2023/06/12 21:10:44;;;;;;;;;;;;;;;25.99;36.42285;101562.4;;;;-69
2023/06/12 21:15:44;;;;;;;;;;;;;;;25.86;36.40137;101562.2;;;;-67
2023/06/12 21:20:44;;;;;;;;;;;;;;;25.77;36.40625;101564.5;;;;-68
2023/06/12 21:25:44;;;;;;;;;;;;;;;25.66;36.39648;101561.1;;;;-67
2023/06/12 21:30:44;;;;;;;;;;;;;;;25.52;36.44238;101566.1;;;;-67
2023/06/12 21:32:43;;;;;;;0.6;0.2;;;;;;;;;;;;;-68
2023/06/12 21:35:44;;;;;;;;;;;;;;;25.37;36.28027;101570.5;;;;-68
2023/06/12 21:40:44;;;;;;;;;;;;;;;25.26;36.09668;101568;;;;-68
2023/06/12 21:45:46;;;;;;;;;;;;;;;25.16;35.96094;101569.8;;;;-66
2023/06/12 21:50:46;;;;;;;;;;;;;;;25.04;35.90527;101571.3;;;;-68
2023/06/12 21:55:44;;;;;;;;;;;;;;;24.95;35.93457;101579;;;;-68
2023/06/12 22:00:44;;;;;;;;;;;;;;;24.85;35.9834;101578.8;;;;-68
2023/06/12 22:02:47;;;;;;;0.3;0.1;;;;;;;;;;;;;-70
2023/06/12 22:05:44;;;;;;;;;;;;;;;24.73;36.10156;101580.6;;;;-67
2023/06/12 22:10:44;;;;;;;;;;;;;;;24.64;36.12891;101585.8;;;;-68
2023/06/12 22:15:44;;;;;;;;;;;;;;;24.51;36.08301;101588.5;;;;-68
2023/06/12 22:20:44;;;;;;;;;;;;;;;24.46;35.94043;101583.9;;;;-68
2023/06/12 22:25:45;;;;;;;;;;;;;;;24.36;35.82813;101589.6;;;;-68
2023/06/12 22:30:44;;;;;;;;;;;;;;;24.27;35.97168;101586.3;;;;-67
2023/06/12 22:32:51;;;;;;;0.2;0.1;;;;;;;;;;;;;-68
2023/06/12 22:35:44;;;;;;;;;;;;;;;24.19;35.60645;101594.7;;;;-68
2023/06/12 22:40:44;;;;;;;;;;;;;;;24.08;35.7832;101588.1;;;;-67
2023/06/12 22:45:44;;;;;;;;;;;;;;;23.96;35.61133;101591.6;;;;-68
2023/06/12 22:50:44;;;;;;;;;;;;;;;23.88;35.59375;101593.9;;;;-68
2023/06/12 22:55:44;;;;;;;;;;;;;;;23.8;35.59863;101597.9;;;;-68
2023/06/12 23:00:44;;;;;;;;;;;;;;;23.77;35.68945;101595.4;;;;-70
2023/06/12 23:02:55;;;;;;;0.2;0.1;;;;;;;;;;;;;-68
2023/06/12 23:05:50;;;;;;;;;;;;;;;23.64;35.87402;101592.3;;;;-69
2023/06/12 23:10:44;;;;;;;;;;;;;;;23.57;36.00781;101595.8;;;;-67
2023/06/12 23:15:44;;;;;;;;;;;;;;;23.49;36.05859;101596.1;;;;-68
2023/06/12 23:20:44;;;;;;;;;;;;;;;23.43;35.84766;101589.9;;;;-67
2023/06/12 23:25:44;;;;;;;;;;;;;;;23.3;36.06641;101587;;;;-66
2023/06/12 23:30:44;;;;;;;;;;;;;;;23.25;36.12012;101582.9;;;;-68
2023/06/12 23:32:59;;;;;;;0.2;0.1;;;;;;;;;;;;;-68
2023/06/12 23:35:44;;;;;;;;;;;;;;;23.17;35.81348;101591.8;;;;-68
2023/06/12 23:40:44;;;;;;;;;;;;;;;23.13;36.00684;101592.9;;;;-68
2023/06/12 23:45:44;;;;;;;;;;;;;;;23.03;35.94141;101596.6;;;;-68
2023/06/12 23:50:45;;;;;;;;;;;;;;;22.95;35.98047;101594.6;;;;-68
2023/06/12 23:55:44;;;;;;;;;;;;;;;22.9;35.80371;101594.7;;;;-68
